sensor_id;sensor_type;location;lat;lon;timestamp;pressure;altitude;pressure_sealevel;temperature;humidity
31285;BME280;56605;51.516;6.742;2023-05-22T00:01:03;101226.41;;;17.74;100.00
31285;BME280;56605;51.516;6.742;2023-05-22T00:03:30;101227.81;;;17.64;100.00
31285;BME280;56605;51.516;6.742;2023-05-22T00:05:57;101225.94;;;17.57;100.00
31285;BME280;56605;51.516;6.742;2023-05-22T00:08:24;101225.09;;;17.57;100.00
31285;BME280;56605;51.516;6.742;2023-05-22T00:10:49;101224.44;;;17.48;100.00
31285;BME280;56605;51.516;6.742;2023-05-22T00:13:14;101230.44;;;17.43;100.00
31285;BME280;56605;51.516;6.742;2023-05-22T00:15:40;101225.69;;;17.45;100.00
31285;BME280;56605;51.516;6.742;2023-05-22T00:18:05;101227.13;;;17.41;100.00
31285;BME280;56605;51.516;6.742;2023-05-22T00:20:32;101216.94;;;17.43;100.00
31285;BME280;56605;51.516;6.742;2023-05-22T00:23:05;101216.09;;;17.43;100.00
31285;BME280;56605;51.516;6.742;2023-05-22T00:25:35;101221.34;;;17.58;100.00
31285;BME280;56605;51.516;6.742;2023-05-22T00:28:01;101208.66;;;17.52;100.00
31285;BME280;56605;51.516;6.742;2023-05-22T00:30:26;101203.31;;;17.58;100.00
31285;BME280;56605;51.516;6.742;2023-05-22T00:32:51;101208.91;;;17.64;100.00
31285;BME280;56605;51.516;6.742;2023-05-22T00:35:16;101206.84;;;17.59;100.00
31285;BME280;56605;51.516;6.742;2023-05-22T00:37:42;101204.75;;;17.61;100.00
31285;BME280;56605;51.516;6.742;2023-05-22T00:40:09;101204.34;;;17.64;100.00
31285;BME280;56605;51.516;6.742;2023-05-22T00:42:35;101204.97;;;17.59;100.00
31285;BME280;56605;51.516;6.742;2023-05-22T00:45:00;101206.00;;;17.58;100.00
31285;BME280;56605;51.516;6.742;2023-05-22T00:47:25;101200.00;;;17.63;100.00
31285;BME280;56605;51.516;6.742;2023-05-22T00:49:51;101203.69;;;17.48;100.00
31285;BME280;56605;51.516;6.742;2023-05-22T00:52:18;101210.75;;;17.49;100.00
31285;BME280;56605;51.516;6.742;2023-05-22T00:54:44;101208.66;;;17.45;100.00
31285;BME280;56605;51.516;6.742;2023-05-22T00:57:10;101201.19;;;17.47;100.00
31285;BME280;56605;51.516;6.742;2023-05-22T00:59:35;101199.13;;;17.49;100.00
31285;BME280;56605;51.516;6.742;2023-05-22T01:02:01;101199.50;;;17.46;100.00
31285;BME280;56605;51.516;6.742;2023-05-22T01:04:27;101199.50;;;17.32;100.00
31285;BME280;56605;51.516;6.742;2023-05-22T01:06:56;101192.69;;;17.50;100.00
31285;BME280;56605;51.516;6.742;2023-05-22T01:09:21;101200.56;;;17.45;100.00
31285;BME280;56605;51.516;6.742;2023-05-22T01:14:28;101195.59;;;17.48;100.00
31285;BME280;56605;51.516;6.742;2023-05-22T01:17:08;101194.09;;;17.39;100.00
31285;BME280;56605;51.516;6.742;2023-05-22T01:28:10;101184.91;;;17.27;100.00
31285;BME280;56605;51.516;6.742;2023-05-22T01:30:46;101182.91;;;17.42;100.00
31285;BME280;56605;51.516;6.742;2023-05-22T01:33:16;101186.63;;;17.34;100.00
31285;BME280;56605;51.516;6.742;2023-05-22T01:35:47;101181.00;;;17.29;100.00
31285;BME280;56605;51.516;6.742;2023-05-22T01:38:16;101178.91;;;17.31;100.00
31285;BME280;56605;51.516;6.742;2023-05-22T01:40:42;101173.31;;;17.26;100.00
31285;BME280;56605;51.516;6.742;2023-05-22T01:43:08;101172.50;;;17.32;100.00
31285;BME280;56605;51.516;6.742;2023-05-22T01:45:34;101169.19;;;17.37;100.00
31285;BME280;56605;51.516;6.742;2023-05-22T01:47:59;101167.50;;;17.29;100.00
31285;BME280;56605;51.516;6.742;2023-05-22T01:50:25;101169.97;;;17.24;100.00
31285;BME280;56605;51.516;6.742;2023-05-22T01:53:23;101165.38;;;17.18;100.00
31285;BME280;56605;51.516;6.742;2023-05-22T02:01:18;101159.47;;;17.01;100.00
31285;BME280;56605;51.516;6.742;2023-05-22T02:03:44;101167.00;;;17.12;100.00
31285;BME280;56605;51.516;6.742;2023-05-22T02:06:12;101157.66;;;17.08;100.00
31285;BME280;56605;51.516;6.742;2023-05-22T02:08:40;101158.63;;;17.00;100.00
31285;BME280;56605;51.516;6.742;2023-05-22T02:11:07;101158.31;;;17.10;100.00
31285;BME280;56605;51.516;6.742;2023-05-22T02:13:34;101163.31;;;17.20;100.00
31285;BME280;56605;51.516;6.742;2023-05-22T02:16:00;101164.38;;;17.26;100.00
31285;BME280;56605;51.516;6.742;2023-05-22T02:18:28;101160.03;;;17.31;100.00
31285;BME280;56605;51.516;6.742;2023-05-22T02:20:58;101170.16;;;17.22;100.00
31285;BME280;56605;51.516;6.742;2023-05-22T02:23:24;101163.63;;;17.03;100.00
31285;BME280;56605;51.516;6.742;2023-05-22T02:25:49;101169.13;;;17.17;100.00
31285;BME280;56605;51.516;6.742;2023-05-22T02:28:15;101166.31;;;17.03;100.00
31285;BME280;56605;51.516;6.742;2023-05-22T02:30:40;101166.91;;;16.92;100.00
31285;BME280;56605;51.516;6.742;2023-05-22T02:33:05;101169.22;;;17.02;100.00
31285;BME280;56605;51.516;6.742;2023-05-22T02:35:33;101163.72;;;16.81;100.00
31285;BME280;56605;51.516;6.742;2023-05-22T02:37:58;101166.81;;;16.71;100.00
31285;BME280;56605;51.516;6.742;2023-05-22T02:40:24;101160.97;;;16.68;100.00
31285;BME280;56605;51.516;6.742;2023-05-22T02:42:49;101165.66;;;16.59;100.00
31285;BME280;56605;51.516;6.742;2023-05-22T02:45:15;101160.88;;;16.54;100.00
31285;BME280;56605;51.516;6.742;2023-05-22T02:47:41;101158.34;;;16.46;100.00
31285;BME280;56605;51.516;6.742;2023-05-22T02:50:06;101158.28;;;16.39;100.00
31285;BME280;56605;51.516;6.742;2023-05-22T02:52:32;101157.47;;;16.39;100.00
31285;BME280;56605;51.516;6.742;2023-05-22T02:54:57;101160.97;;;16.39;100.00
31285;BME280;56605;51.516;6.742;2023-05-22T02:57:22;101159.66;;;16.28;100.00
31285;BME280;56605;51.516;6.742;2023-05-22T02:59:48;101167.41;;;16.38;100.00
31285;BME280;56605;51.516;6.742;2023-05-22T03:02:13;101168.63;;;16.35;100.00
31285;BME280;56605;51.516;6.742;2023-05-22T03:04:39;101171.50;;;16.34;100.00
31285;BME280;56605;51.516;6.742;2023-05-22T03:07:04;101173.31;;;16.27;100.00
31285;BME280;56605;51.516;6.742;2023-05-22T03:09:31;101170.09;;;16.38;100.00
31285;BME280;56605;51.516;6.742;2023-05-22T03:11:56;101161.38;;;16.36;100.00
31285;BME280;56605;51.516;6.742;2023-05-22T03:14:21;101165.44;;;16.25;100.00
31285;BME280;56605;51.516;6.742;2023-05-22T03:16:47;101169.97;;;16.25;100.00
31285;BME280;56605;51.516;6.742;2023-05-22T03:19:14;101167.88;;;16.20;100.00
31285;BME280;56605;51.516;6.742;2023-05-22T03:21:39;101171.16;;;16.15;100.00
31285;BME280;56605;51.516;6.742;2023-05-22T03:24:05;101170.47;;;16.06;100.00
31285;BME280;56605;51.516;6.742;2023-05-22T03:26:31;101175.91;;;16.13;100.00
31285;BME280;56605;51.516;6.742;2023-05-22T03:28:56;101175.66;;;16.08;100.00
31285;BME280;56605;51.516;6.742;2023-05-22T03:31:26;101174.38;;;16.04;100.00
31285;BME280;56605;51.516;6.742;2023-05-22T03:33:52;101177.06;;;16.04;100.00
31285;BME280;56605;51.516;6.742;2023-05-22T03:36:18;101172.97;;;16.08;100.00
31285;BME280;56605;51.516;6.742;2023-05-22T03:38:43;101171.69;;;16.04;100.00
31285;BME280;56605;51.516;6.742;2023-05-22T03:41:09;101172.72;;;16.03;100.00
31285;BME280;56605;51.516;6.742;2023-05-22T03:43:34;101179.75;;;16.04;100.00
31285;BME280;56605;51.516;6.742;2023-05-22T03:45:59;101174.13;;;15.99;100.00
31285;BME280;56605;51.516;6.742;2023-05-22T03:48:25;101170.13;;;15.94;100.00
31285;BME280;56605;51.516;6.742;2023-05-22T03:50:50;101162.56;;;15.83;100.00
31285;BME280;56605;51.516;6.742;2023-05-22T03:53:16;101167.81;;;15.91;100.00
31285;BME280;56605;51.516;6.742;2023-05-22T03:55:41;101170.03;;;16.03;100.00
31285;BME280;56605;51.516;6.742;2023-05-22T03:58:07;101165.41;;;15.96;100.00
31285;BME280;56605;51.516;6.742;2023-05-22T04:00:32;101163.06;;;15.93;100.00
31285;BME280;56605;51.516;6.742;2023-05-22T04:02:59;101166.66;;;15.57;100.00
31285;BME280;56605;51.516;6.742;2023-05-22T04:05:24;101169.53;;;15.55;100.00
31285;BME280;56605;51.516;6.742;2023-05-22T04:07:50;101172.59;;;15.74;100.00
31285;BME280;56605;51.516;6.742;2023-05-22T04:10:15;101174.53;;;15.80;100.00
31285;BME280;56605;51.516;6.742;2023-05-22T04:12:41;101182.19;;;15.77;100.00
31285;BME280;56605;51.516;6.742;2023-05-22T04:15:07;101171.03;;;15.80;100.00
31285;BME280;56605;51.516;6.742;2023-05-22T04:17:33;101169.81;;;15.82;100.00
31285;BME280;56605;51.516;6.742;2023-05-22T04:19:59;101177.13;;;15.89;100.00
31285;BME280;56605;51.516;6.742;2023-05-22T04:22:26;101169.81;;;15.61;100.00
31285;BME280;56605;51.516;6.742;2023-05-22T04:24:52;101170.94;;;15.73;100.00
31285;BME280;56605;51.516;6.742;2023-05-22T04:27:17;101167.31;;;15.81;100.00
31285;BME280;56605;51.516;6.742;2023-05-22T04:29:46;101176.19;;;15.81;100.00
31285;BME280;56605;51.516;6.742;2023-05-22T04:32:11;101173.47;;;15.96;100.00
31285;BME280;56605;51.516;6.742;2023-05-22T04:34:36;101172.66;;;15.96;100.00
31285;BME280;56605;51.516;6.742;2023-05-22T04:37:03;101179.31;;;16.00;100.00
31285;BME280;56605;51.516;6.742;2023-05-22T04:39:28;101183.31;;;15.89;100.00
31285;BME280;56605;51.516;6.742;2023-05-22T04:41:54;101177.94;;;16.11;100.00
31285;BME280;56605;51.516;6.742;2023-05-22T04:44:19;101187.66;;;15.90;100.00
31285;BME280;56605;51.516;6.742;2023-05-22T04:46:47;101186.28;;;15.94;100.00
31285;BME280;56605;51.516;6.742;2023-05-22T04:49:12;101185.53;;;16.01;100.00
31285;BME280;56605;51.516;6.742;2023-05-22T04:51:38;101185.59;;;16.07;100.00
31285;BME280;56605;51.516;6.742;2023-05-22T04:54:03;101179.09;;;16.23;100.00
31285;BME280;56605;51.516;6.742;2023-05-22T04:56:29;101184.94;;;16.27;100.00
31285;BME280;56605;51.516;6.742;2023-05-22T04:58:55;101178.66;;;16.20;100.00
31285;BME280;56605;51.516;6.742;2023-05-22T05:01:21;101179.63;;;16.41;100.00
31285;BME280;56605;51.516;6.742;2023-05-22T05:03:46;101181.63;;;16.32;100.00
31285;BME280;56605;51.516;6.742;2023-05-22T05:06:12;101179.22;;;16.37;100.00
31285;BME280;56605;51.516;6.742;2023-05-22T05:08:37;101181.50;;;16.40;100.00
31285;BME280;56605;51.516;6.742;2023-05-22T05:11:02;101184.84;;;16.42;100.00
31285;BME280;56605;51.516;6.742;2023-05-22T05:13:28;101183.81;;;16.43;100.00
31285;BME280;56605;51.516;6.742;2023-05-22T05:15:54;101191.06;;;16.43;100.00
31285;BME280;56605;51.516;6.742;2023-05-22T05:18:19;101191.53;;;16.46;100.00
31285;BME280;56605;51.516;6.742;2023-05-22T05:20:44;101185.72;;;16.50;100.00
31285;BME280;56605;51.516;6.742;2023-05-22T05:23:10;101177.44;;;16.51;100.00
31285;BME280;56605;51.516;6.742;2023-05-22T05:25:35;101186.16;;;16.53;100.00
31285;BME280;56605;51.516;6.742;2023-05-22T05:28:06;101179.34;;;16.57;100.00
31285;BME280;56605;51.516;6.742;2023-05-22T05:30:39;101186.19;;;16.60;100.00
31285;BME280;56605;51.516;6.742;2023-05-22T05:33:04;101186.88;;;16.69;100.00
31285;BME280;56605;51.516;6.742;2023-05-22T05:35:30;101195.16;;;16.67;100.00
31285;BME280;56605;51.516;6.742;2023-05-22T05:37:55;101189.38;;;16.70;100.00
31285;BME280;56605;51.516;6.742;2023-05-22T05:40:20;101198.41;;;16.84;100.00
31285;BME280;56605;51.516;6.742;2023-05-22T05:42:46;101192.41;;;16.89;100.00
31285;BME280;56605;51.516;6.742;2023-05-22T05:45:12;101190.66;;;16.75;100.00
31285;BME280;56605;51.516;6.742;2023-05-22T05:47:37;101195.41;;;16.72;100.00
31285;BME280;56605;51.516;6.742;2023-05-22T05:50:02;101201.28;;;16.83;100.00
31285;BME280;56605;51.516;6.742;2023-05-22T05:52:28;101200.91;;;16.93;100.00
31285;BME280;56605;51.516;6.742;2023-05-22T05:54:57;101204.19;;;16.88;100.00
31285;BME280;56605;51.516;6.742;2023-05-22T05:57:22;101202.38;;;16.95;100.00
31285;BME280;56605;51.516;6.742;2023-05-22T05:59:57;101204.28;;;17.02;100.00
31285;BME280;56605;51.516;6.742;2023-05-22T06:02:22;101206.75;;;16.96;100.00
31285;BME280;56605;51.516;6.742;2023-05-22T06:04:47;101198.78;;;17.17;100.00
31285;BME280;56605;51.516;6.742;2023-05-22T06:07:14;101197.13;;;17.16;100.00
31285;BME280;56605;51.516;6.742;2023-05-22T06:09:39;101193.88;;;17.34;100.00
31285;BME280;56605;51.516;6.742;2023-05-22T06:12:05;101191.84;;;17.49;100.00
31285;BME280;56605;51.516;6.742;2023-05-22T06:14:30;101195.16;;;17.52;100.00
31285;BME280;56605;51.516;6.742;2023-05-22T06:16:56;101196.56;;;17.34;100.00
31285;BME280;56605;51.516;6.742;2023-05-22T06:19:22;101204.06;;;17.39;100.00
31285;BME280;56605;51.516;6.742;2023-05-22T06:21:47;101207.16;;;17.35;100.00
31285;BME280;56605;51.516;6.742;2023-05-22T06:24:13;101201.44;;;17.59;100.00
31285;BME280;56605;51.516;6.742;2023-05-22T06:26:38;101195.38;;;17.43;100.00
31285;BME280;56605;51.516;6.742;2023-05-22T06:29:03;101202.84;;;17.48;100.00
31285;BME280;56605;51.516;6.742;2023-05-22T06:31:29;101198.78;;;17.79;100.00
31285;BME280;56605;51.516;6.742;2023-05-22T06:33:56;101205.03;;;17.86;100.00
31285;BME280;56605;51.516;6.742;2023-05-22T06:36:21;101205.00;;;17.66;100.00
31285;BME280;56605;51.516;6.742;2023-05-22T06:38:46;101211.84;;;17.69;100.00
31285;BME280;56605;51.516;6.742;2023-05-22T06:41:13;101205.25;;;17.98;100.00
31285;BME280;56605;51.516;6.742;2023-05-22T06:43:38;101213.13;;;17.86;100.00
31285;BME280;56605;51.516;6.742;2023-05-22T06:46:04;101205.22;;;17.92;100.00
31285;BME280;56605;51.516;6.742;2023-05-22T06:48:34;101205.72;;;18.22;100.00
31285;BME280;56605;51.516;6.742;2023-05-22T06:51:00;101207.16;;;18.38;100.00
31285;BME280;56605;51.516;6.742;2023-05-22T06:53:25;101211.75;;;18.38;100.00
31285;BME280;56605;51.516;6.742;2023-05-22T06:55:51;101213.19;;;18.54;100.00
31285;BME280;56605;51.516;6.742;2023-05-22T06:58:16;101210.69;;;18.46;100.00
31285;BME280;56605;51.516;6.742;2023-05-22T07:00:42;101210.06;;;18.44;100.00
31285;BME280;56605;51.516;6.742;2023-05-22T07:03:07;101216.91;;;18.67;100.00
31285;BME280;56605;51.516;6.742;2023-05-22T07:05:32;101217.34;;;18.36;100.00
31285;BME280;56605;51.516;6.742;2023-05-22T07:07:58;101226.50;;;18.35;100.00
31285;BME280;56605;51.516;6.742;2023-05-22T07:10:23;101220.47;;;18.40;100.00
31285;BME280;56605;51.516;6.742;2023-05-22T07:12:51;101228.38;;;18.55;100.00
31285;BME280;56605;51.516;6.742;2023-05-22T07:15:16;101225.69;;;18.55;100.00
31285;BME280;56605;51.516;6.742;2023-05-22T07:17:42;101226.66;;;18.81;100.00
31285;BME280;56605;51.516;6.742;2023-05-22T07:20:08;101231.47;;;18.72;100.00
31285;BME280;56605;51.516;6.742;2023-05-22T07:22:34;101232.91;;;18.75;100.00
31285;BME280;56605;51.516;6.742;2023-05-22T07:24:59;101236.44;;;18.69;100.00
31285;BME280;56605;51.516;6.742;2023-05-22T07:27:24;101237.69;;;18.80;100.00
31285;BME280;56605;51.516;6.742;2023-05-22T07:29:49;101238.13;;;18.63;100.00
31285;BME280;56605;51.516;6.742;2023-05-22T07:32:15;101239.34;;;18.87;100.00
31285;BME280;56605;51.516;6.742;2023-05-22T07:34:40;101244.78;;;18.74;100.00
31285;BME280;56605;51.516;6.742;2023-05-22T07:37:07;101255.38;;;18.82;100.00
31285;BME280;56605;51.516;6.742;2023-05-22T07:39:33;101247.25;;;18.82;100.00
31285;BME280;56605;51.516;6.742;2023-05-22T07:41:58;101239.28;;;19.14;100.00
31285;BME280;56605;51.516;6.742;2023-05-22T07:44:24;101244.06;;;19.06;100.00
31285;BME280;56605;51.516;6.742;2023-05-22T07:46:49;101241.16;;;19.21;100.00
31285;BME280;56605;51.516;6.742;2023-05-22T07:49:16;101241.09;;;19.41;100.00
31285;BME280;56605;51.516;6.742;2023-05-22T07:51:44;101244.19;;;19.45;100.00
31285;BME280;56605;51.516;6.742;2023-05-22T07:54:09;101251.03;;;19.54;100.00
31285;BME280;56605;51.516;6.742;2023-05-22T07:56:35;101248.56;;;19.46;100.00
31285;BME280;56605;51.516;6.742;2023-05-22T07:59:03;101255.59;;;19.54;100.00
31285;BME280;56605;51.516;6.742;2023-05-22T08:01:29;101252.63;;;19.62;100.00
31285;BME280;56605;51.516;6.742;2023-05-22T08:03:54;101257.34;;;19.41;100.00
31285;BME280;56605;51.516;6.742;2023-05-22T08:06:20;101259.22;;;19.41;100.00
31285;BME280;56605;51.516;6.742;2023-05-22T08:08:47;101261.03;;;19.54;100.00
31285;BME280;56605;51.516;6.742;2023-05-22T08:11:13;101265.25;;;19.36;100.00
31285;BME280;56605;51.516;6.742;2023-05-22T08:13:39;101262.56;;;19.36;100.00
31285;BME280;56605;51.516;6.742;2023-05-22T08:16:04;101267.91;;;19.49;100.00
31285;BME280;56605;51.516;6.742;2023-05-22T08:18:30;101266.97;;;19.17;100.00
31285;BME280;56605;51.516;6.742;2023-05-22T08:20:56;101267.22;;;19.08;100.00
31285;BME280;56605;51.516;6.742;2023-05-22T08:23:21;101270.31;;;19.05;100.00
31285;BME280;56605;51.516;6.742;2023-05-22T08:25:46;101278.22;;;19.00;100.00
31285;BME280;56605;51.516;6.742;2023-05-22T08:28:12;101265.97;;;18.91;100.00
31285;BME280;56605;51.516;6.742;2023-05-22T08:30:37;101269.53;;;18.71;100.00
31285;BME280;56605;51.516;6.742;2023-05-22T08:33:03;101274.50;;;18.81;100.00
31285;BME280;56605;51.516;6.742;2023-05-22T08:35:28;101276.38;;;19.00;100.00
31285;BME280;56605;51.516;6.742;2023-05-22T08:37:53;101282.22;;;18.57;100.00
31285;BME280;56605;51.516;6.742;2023-05-22T08:40:19;101279.09;;;18.73;100.00
31285;BME280;56605;51.516;6.742;2023-05-22T08:42:45;101287.63;;;19.11;100.00
31285;BME280;56605;51.516;6.742;2023-05-22T08:45:12;101278.88;;;19.09;100.00
31285;BME280;56605;51.516;6.742;2023-05-22T08:47:41;101275.09;;;19.03;100.00
31285;BME280;56605;51.516;6.742;2023-05-22T08:50:08;101275.34;;;18.81;100.00
31285;BME280;56605;51.516;6.742;2023-05-22T08:52:41;101269.28;;;18.93;100.00
31285;BME280;56605;51.516;6.742;2023-05-22T08:55:10;101279.31;;;18.92;100.00
31285;BME280;56605;51.516;6.742;2023-05-22T08:57:36;101282.41;;;18.69;100.00
31285;BME280;56605;51.516;6.742;2023-05-22T09:00:01;101277.63;;;18.78;100.00
31285;BME280;56605;51.516;6.742;2023-05-22T09:02:27;101275.56;;;18.66;100.00
31285;BME280;56605;51.516;6.742;2023-05-22T09:04:53;101275.97;;;18.90;100.00
31285;BME280;56605;51.516;6.742;2023-05-22T09:07:18;101287.22;;;18.60;100.00
31285;BME280;56605;51.516;6.742;2023-05-22T09:09:46;101282.44;;;18.48;100.00
31285;BME280;56605;51.516;6.742;2023-05-22T09:12:11;101293.63;;;18.32;100.00
31285;BME280;56605;51.516;6.742;2023-05-22T09:14:38;101295.09;;;18.28;100.00
31285;BME280;56605;51.516;6.742;2023-05-22T09:17:04;101289.06;;;18.32;100.00
31285;BME280;56605;51.516;6.742;2023-05-22T09:19:30;101285.13;;;18.75;100.00
31285;BME280;56605;51.516;6.742;2023-05-22T09:22:03;101289.09;;;18.53;100.00
31285;BME280;56605;51.516;6.742;2023-05-22T09:24:29;101298.22;;;18.58;100.00
31285;BME280;56605;51.516;6.742;2023-05-22T09:26:54;101289.06;;;18.39;100.00
31285;BME280;56605;51.516;6.742;2023-05-22T09:29:19;101296.56;;;18.57;100.00
31285;BME280;56605;51.516;6.742;2023-05-22T09:31:45;101297.84;;;18.68;100.00
31285;BME280;56605;51.516;6.742;2023-05-22T09:34:11;101297.59;;;18.90;100.00
31285;BME280;56605;51.516;6.742;2023-05-22T09:36:40;101298.44;;;18.70;100.00
31285;BME280;56605;51.516;6.742;2023-05-22T09:39:06;101298.88;;;18.54;100.00
31285;BME280;56605;51.516;6.742;2023-05-22T09:41:38;101292.09;;;18.02;100.00
31285;BME280;56605;51.516;6.742;2023-05-22T09:44:12;101301.53;;;18.33;100.00
31285;BME280;56605;51.516;6.742;2023-05-22T09:46:39;101299.06;;;18.45;100.00
31285;BME280;56605;51.516;6.742;2023-05-22T09:49:05;101299.69;;;18.34;100.00
31285;BME280;56605;51.516;6.742;2023-05-22T09:51:32;101301.34;;;18.82;100.00
31285;BME280;56605;51.516;6.742;2023-05-22T09:54:02;101292.06;;;19.51;100.00
31285;BME280;56605;51.516;6.742;2023-05-22T09:56:30;101281.75;;;19.28;100.00
31285;BME280;56605;51.516;6.742;2023-05-22T09:58:57;101288.88;;;19.68;100.00
31285;BME280;56605;51.516;6.742;2023-05-22T10:01:24;101294.47;;;19.73;100.00
31285;BME280;56605;51.516;6.742;2023-05-22T10:03:51;101285.25;;;20.20;100.00
31285;BME280;56605;51.516;6.742;2023-05-22T10:06:20;101288.69;;;20.08;100.00
31285;BME280;56605;51.516;6.742;2023-05-22T10:08:50;101276.03;;;20.27;100.00
31285;BME280;56605;51.516;6.742;2023-05-22T10:11:17;101279.56;;;21.05;100.00
31285;BME280;56605;51.516;6.742;2023-05-22T10:13:43;101276.09;;;21.16;100.00
31285;BME280;56605;51.516;6.742;2023-05-22T10:16:12;101280.59;;;20.59;100.00
31285;BME280;56605;51.516;6.742;2023-05-22T10:18:40;101281.91;;;21.57;100.00
31285;BME280;56605;51.516;6.742;2023-05-22T10:21:07;101275.66;;;22.30;100.00
31285;BME280;56605;51.516;6.742;2023-05-22T10:23:33;101277.66;;;22.65;100.00
31285;BME280;56605;51.516;6.742;2023-05-22T10:25:59;101271.75;;;23.34;100.00
31285;BME280;56605;51.516;6.742;2023-05-22T10:28:29;101264.03;;;23.84;100.00
31285;BME280;56605;51.516;6.742;2023-05-22T10:31:03;101272.28;;;23.18;100.00
31285;BME280;56605;51.516;6.742;2023-05-22T10:33:46;101271.41;;;22.22;100.00
31285;BME280;56605;51.516;6.742;2023-05-22T10:36:26;101256.53;;;22.97;100.00
31285;BME280;56605;51.516;6.742;2023-05-22T10:39:06;101262.22;;;23.07;100.00
31285;BME280;56605;51.516;6.742;2023-05-22T10:41:36;101270.75;;;24.10;100.00
31285;BME280;56605;51.516;6.742;2023-05-22T10:44:01;101272.19;;;24.47;100.00
31285;BME280;56605;51.516;6.742;2023-05-22T10:46:31;101264.22;;;23.94;100.00
31285;BME280;56605;51.516;6.742;2023-05-22T10:48:57;101255.13;;;24.05;100.00
31285;BME280;56605;51.516;6.742;2023-05-22T10:51:22;101258.88;;;24.34;100.00
31285;BME280;56605;51.516;6.742;2023-05-22T10:53:56;101261.97;;;23.91;100.00
31285;BME280;56605;51.516;6.742;2023-05-22T10:56:22;101256.59;;;23.50;100.00
31285;BME280;56605;51.516;6.742;2023-05-22T10:58:57;101257.44;;;23.97;100.00
31285;BME280;56605;51.516;6.742;2023-05-22T11:01:27;101258.09;;;24.04;100.00
31285;BME280;56605;51.516;6.742;2023-05-22T11:09:15;101251.22;;;24.13;100.00
31285;BME280;56605;51.516;6.742;2023-05-22T11:11:41;101250.88;;;24.27;100.00
31285;BME280;56605;51.516;6.742;2023-05-22T11:14:06;101250.81;;;24.10;100.00
31285;BME280;56605;51.516;6.742;2023-05-22T11:16:32;101251.50;;;23.71;100.00
31285;BME280;56605;51.516;6.742;2023-05-22T11:19:05;101251.25;;;24.01;100.00
31285;BME280;56605;51.516;6.742;2023-05-22T11:21:46;101244.16;;;24.35;100.00
31285;BME280;56605;51.516;6.742;2023-05-22T11:24:12;101241.53;;;24.79;100.00
31285;BME280;56605;51.516;6.742;2023-05-22T11:26:43;101235.69;;;24.70;100.00
31285;BME280;56605;51.516;6.742;2023-05-22T11:29:08;101234.47;;;24.61;100.00
31285;BME280;56605;51.516;6.742;2023-05-22T11:31:35;101226.91;;;24.46;100.00
31285;BME280;56605;51.516;6.742;2023-05-22T11:34:04;101233.63;;;24.09;100.00
31285;BME280;56605;51.516;6.742;2023-05-22T11:36:29;101225.25;;;24.28;100.00
31285;BME280;56605;51.516;6.742;2023-05-22T11:38:56;101226.81;;;24.80;100.00
31285;BME280;56605;51.516;6.742;2023-05-22T11:41:22;101232.69;;;24.89;100.00
31285;BME280;56605;51.516;6.742;2023-05-22T11:43:47;101228.16;;;26.00;100.00
31285;BME280;56605;51.516;6.742;2023-05-22T11:46:13;101228.97;;;25.68;100.00
31285;BME280;56605;51.516;6.742;2023-05-22T11:48:40;101228.47;;;26.04;100.00
31285;BME280;56605;51.516;6.742;2023-05-22T11:51:07;101229.47;;;26.25;100.00
31285;BME280;56605;51.516;6.742;2023-05-22T11:53:33;101223.00;;;26.04;100.00
31285;BME280;56605;51.516;6.742;2023-05-22T11:56:02;101226.72;;;26.63;100.00
31285;BME280;56605;51.516;6.742;2023-05-22T11:58:29;101216.53;;;25.55;100.00
31285;BME280;56605;51.516;6.742;2023-05-22T12:01:01;101221.06;;;26.75;100.00
31285;BME280;56605;51.516;6.742;2023-05-22T12:03:27;101218.75;;;26.18;100.00
31285;BME280;56605;51.516;6.742;2023-05-22T12:05:53;101215.97;;;26.13;100.00
31285;BME280;56605;51.516;6.742;2023-05-22T12:08:18;101211.28;;;25.76;100.00
31285;BME280;56605;51.516;6.742;2023-05-22T12:10:51;101215.22;;;26.23;100.00
31285;BME280;56605;51.516;6.742;2023-05-22T12:13:27;101205.38;;;26.60;100.00
31285;BME280;56605;51.516;6.742;2023-05-22T12:15:55;101213.50;;;26.44;100.00
31285;BME280;56605;51.516;6.742;2023-05-22T12:18:21;101212.16;;;26.19;100.00
31285;BME280;56605;51.516;6.742;2023-05-22T12:20:50;101211.16;;;26.64;100.00
31285;BME280;56605;51.516;6.742;2023-05-22T12:23:25;101213.53;;;26.17;100.00
31285;BME280;56605;51.516;6.742;2023-05-22T12:26:02;101206.53;;;26.75;100.00
31285;BME280;56605;51.516;6.742;2023-05-22T12:28:30;101197.44;;;25.88;100.00
31285;BME280;56605;51.516;6.742;2023-05-22T12:30:56;101199.91;;;26.22;100.00
31285;BME280;56605;51.516;6.742;2023-05-22T12:33:25;101193.06;;;26.25;100.00
31285;BME280;56605;51.516;6.742;2023-05-22T12:35:50;101196.84;;;25.80;100.00
31285;BME280;56605;51.516;6.742;2023-05-22T12:38:19;101192.47;;;24.85;100.00
31285;BME280;56605;51.516;6.742;2023-05-22T12:40:45;101188.38;;;26.20;100.00
31285;BME280;56605;51.516;6.742;2023-05-22T12:43:10;101197.16;;;26.22;100.00
31285;BME280;56605;51.516;6.742;2023-05-22T12:45:35;101189.56;;;26.78;100.00
31285;BME280;56605;51.516;6.742;2023-05-22T12:48:01;101192.22;;;27.26;99.84
31285;BME280;56605;51.516;6.742;2023-05-22T12:50:26;101181.50;;;27.09;100.00
31285;BME280;56605;51.516;6.742;2023-05-22T12:52:51;101177.25;;;26.80;99.79
31285;BME280;56605;51.516;6.742;2023-05-22T12:55:17;101178.22;;;27.17;99.02
31285;BME280;56605;51.516;6.742;2023-05-22T12:57:42;101183.69;;;27.02;99.32
31285;BME280;56605;51.516;6.742;2023-05-22T13:00:08;101180.28;;;25.98;100.00